Time;durP1;ratioP1;P1;durP2;ratioP2;P2;SDS_P1;SDS_P2;PMS_P1;PMS_P2;Temp;Humidity;BMP_temperature;BMP_pressure;BME280_temperature;BME280_humidity;BME280_pressure;Samples;Min_cycle;Max_cycle;Signal;HPM_P1;HPM_P2
2024/01/12 00:01:34;;;;;;;35.83;14.43;;;;;;;-14.36;98.32;99180.66;5039560;28;20067;-63
2024/01/12 00:04:05;;;;;;;26.23;10.85;;;;;;;-14.24;98.45;99203.16;5029707;28;20044;-64
2024/01/12 00:06:37;;;;;;;33.10;12.57;;;;;;;-14.22;98.53;99194.94;5039789;28;20125;-62
2024/01/12 00:09:07;;;;;;;42.60;16.23;;;;;;;-14.32;97.80;99176.69;5029330;28;20083;-64
2024/01/12 00:11:38;;;;;;;44.58;15.63;;;;;;;-14.35;97.81;99172.34;5032363;28;20136;-60
2024/01/12 00:14:08;;;;;;;23.85;10.48;;;;;;;-14.34;98.30;99195.03;5039139;28;20075;-62
2024/01/12 00:16:42;;;;;;;42.20;12.75;;;;;;;-14.31;98.36;99173.41;5029959;28;20897;-59
2024/01/12 00:19:13;;;;;;;39.50;13.30;;;;;;;-14.31;97.95;99204.38;5039498;28;20140;-60
2024/01/12 00:21:47;;;;;;;30.55;12.57;;;;;;;-14.42;98.38;99181.13;5029326;28;20063;-62
2024/01/12 00:24:17;;;;;;;39.85;16.45;;;;;;;-14.32;97.97;99206.78;5039125;28;20064;-60
2024/01/12 00:26:49;;;;;;;46.40;17.20;;;;;;;-14.34;97.85;99225.13;5029321;28;20561;-62
2024/01/12 00:29:19;;;;;;;55.38;16.98;;;;;;;-14.42;98.15;99216.25;5039015;28;20053;-59
2024/01/12 00:31:50;;;;;;;56.17;16.65;;;;;;;-14.43;97.92;99234.56;5029079;28;20491;-58
2024/01/12 00:34:20;;;;;;;42.05;11.52;;;;;;;-14.31;97.93;99209.41;5039205;28;20048;-59
2024/01/12 00:36:53;;;;;;;31.30;11.55;;;;;;;-14.29;97.51;99212.03;5029232;28;20048;-62
2024/01/12 00:39:24;;;;;;;33.72;11.65;;;;;;;-14.35;97.36;99223.41;5039222;28;20070;-64
2024/01/12 00:41:54;;;;;;;56.13;17.48;;;;;;;-14.42;96.36;99240.47;5030037;28;20132;-61
2024/01/12 00:44:24;;;;;;;42.75;14.25;;;;;;;-14.35;96.98;99223.41;5039269;28;20613;-61
2024/01/12 00:46:55;;;;;;;26.90;10.45;;;;;;;-14.22;97.09;99239.25;5028441;28;20056;-60
2024/01/12 00:49:25;;;;;;;34.95;12.93;;;;;;;-14.23;96.36;99267.63;5036085;28;20131;-63
2024/01/12 00:51:57;;;;;;;40.42;11.38;;;;;;;-14.34;96.04;99220.13;5028917;28;20048;-62
2024/01/12 00:54:28;;;;;;;34.50;14.13;;;;;;;-14.39;96.05;99223.97;5039211;28;20392;-62
2024/01/12 00:56:58;;;;;;;65.07;15.88;;;;;;;-14.46;96.23;99249.44;5029564;28;20124;-63
2024/01/12 00:59:29;;;;;;;45.30;13.45;;;;;;;-14.45;96.86;99226.09;5037732;28;20151;-62
2024/01/12 01:01:59;;;;;;;23.90;10.15;;;;;;;-14.51;96.57;99210.63;5028774;28;20048;-63
2024/01/12 01:04:30;;;;;;;35.88;11.25;;;;;;;-14.52;97.19;99223.06;5039146;28;20097;-61
2024/01/12 01:07:02;;;;;;;30.10;11.23;;;;;;;-14.50;96.96;99242.50;5029064;28;20139;-62
2024/01/12 01:09:43;;;;;;;59.38;15.95;;;;;;;-14.60;96.22;99220.09;5037625;28;20136;-60
2024/01/12 01:12:13;;;;;;;40.75;14.07;;;;;;;-14.62;96.79;99221.66;5041778;28;20109;-57
2024/01/12 01:14:43;;;;;;;42.60;15.02;;;;;;;-14.65;96.02;99259.03;5032654;28;20079;-59
2024/01/12 01:17:14;;;;;;;43.28;13.80;;;;;;;-14.72;95.77;99225.19;5043241;28;20445;-58
2024/01/12 01:19:44;;;;;;;26.20;10.80;;;;;;;-14.68;96.20;99196.16;5033194;28;20147;-60
2024/01/12 01:22:16;;;;;;;40.53;13.10;;;;;;;-14.67;96.39;99212.97;5043674;28;20151;-59
2024/01/12 01:24:47;;;;;;;27.83;10.98;;;;;;;-14.58;96.59;99218.56;5032128;28;20063;-62
2024/01/12 01:27:17;;;;;;;43.50;13.98;;;;;;;-14.57;96.18;99215.28;5043163;28;20543;-60
2024/01/12 01:29:48;;;;;;;54.72;14.52;;;;;;;-14.65;95.08;99211.41;5033620;28;20083;-59
2024/01/12 01:32:18;;;;;;;38.42;9.70;;;;;;;-14.70;95.45;99213.63;5046285;28;20044;-61
2024/01/12 01:34:50;;;;;;;43.17;14.35;;;;;;;-14.82;94.95;99187.75;5036698;28;20076;-58
2024/01/12 01:37:23;;;;;;;25.48;9.63;;;;;;;-14.70;95.75;99206.09;5046453;28;20457;-60
2024/01/12 01:39:53;;;;;;;33.40;12.40;;;;;;;-14.68;95.65;99198.66;5036231;28;20114;-60
2024/01/12 01:42:23;;;;;;;28.20;9.52;;;;;;;-14.59;96.05;99184.22;5046518;28;20102;-59
2024/01/12 01:44:54;;;;;;;80.82;17.80;;;;;;;-14.58;95.93;99178.41;5037119;28;20656;-61
2024/01/12 01:47:23;;;;;;;45.90;14.60;;;;;;;-14.56;95.80;99156.81;5046654;28;20071;-60
2024/01/12 01:49:54;;;;;;;46.75;13.48;;;;;;;-14.51;95.73;99180.53;5036801;28;20048;-63
2024/01/12 01:52:27;;;;;;;39.13;13.75;;;;;;;-14.53;95.58;99177.09;5047170;28;20052;-60
2024/01/12 01:54:59;;;;;;;53.60;14.88;;;;;;;-14.83;95.46;99126.69;5036947;28;20126;-60
2024/01/12 01:57:30;;;;;;;38.15;12.52;;;;;;;-14.51;95.54;99185.53;5046783;28;20052;-60
2024/01/12 02:00:00;;;;;;;38.10;13.27;;;;;;;-14.45;95.64;99160.88;5037114;28;20403;-61
2024/01/12 02:02:31;;;;;;;38.35;13.73;;;;;;;-14.43;95.35;99159.31;5046552;28;20471;-59
2024/01/12 02:05:04;;;;;;;32.67;12.88;;;;;;;-14.46;95.45;99164.13;5036728;28;20396;-59
2024/01/12 02:07:36;;;;;;;34.88;13.52;;;;;;;-14.67;95.83;99142.75;5046965;28;20059;-60
2024/01/12 02:10:07;;;;;;;47.28;16.08;;;;;;;-14.50;95.13;99171.34;5036380;28;20796;-59
2024/01/12 02:12:38;;;;;;;39.80;13.70;;;;;;;-14.59;95.52;99122.38;5028116;28;20136;-60
2024/01/12 02:15:11;;;;;;;45.92;14.77;;;;;;;-14.50;95.40;99147.16;5026434;28;20140;-60
2024/01/12 02:17:41;;;;;;;58.15;13.73;;;;;;;-14.35;95.05;99158.19;5036202;28;20044;-58
2024/01/12 02:20:12;;;;;;;33.35;12.32;;;;;;;-14.35;94.75;99152.25;5045286;28;20488;-60
2024/01/12 02:22:44;;;;;;;33.85;10.80;;;;;;;-14.31;94.72;99148.31;5035391;28;20055;-61
2024/01/12 02:25:16;;;;;;;47.97;15.20;;;;;;;-14.37;94.18;99182.28;5045949;28;20086;-59
2024/01/12 02:27:47;;;;;;;26.77;11.43;;;;;;;-14.48;93.15;99160.66;5035537;28;20135;-62
2024/01/12 02:30:17;;;;;;;55.75;13.70;;;;;;;-14.54;93.36;99152.78;5046476;28;20131;-59
2024/01/12 02:32:48;;;;;;;32.00;13.27;;;;;;;-14.55;93.50;99143.50;5036260;28;20114;-60
2024/01/12 02:35:18;;;;;;;28.98;9.30;;;;;;;-14.52;93.87;99147.81;5045777;28;20056;-60
2024/01/12 02:37:51;;;;;;;29.67;10.55;;;;;;;-14.54;94.14;99142.75;5035598;28;20132;-58
2024/01/12 02:40:21;;;;;;;32.13;9.75;;;;;;;-14.65;93.37;99161.22;5045707;28;20055;-60
2024/01/12 02:42:51;;;;;;;30.83;10.55;;;;;;;-14.74;93.66;99138.09;5035030;28;20652;-58
2024/01/12 02:45:22;;;;;;;39.38;14.68;;;;;;;-14.80;93.44;99159.50;5045697;28;20052;-60
2024/01/12 02:47:52;;;;;;;25.05;10.82;;;;;;;-14.85;93.59;99143.28;5001514;28;20204;-58
2024/01/12 02:50:23;;;;;;;28.10;9.95;;;;;;;-14.84;93.37;99144.16;5006056;28;20053;-59
2024/01/12 02:52:55;;;;;;;43.15;13.13;;;;;;;-15.10;92.70;99099.81;5011744;28;20053;-60
2024/01/12 02:55:26;;;;;;;45.58;14.52;;;;;;;-15.28;93.22;99170.50;5018034;28;20136;-59
2024/01/12 02:57:56;;;;;;;37.50;12.45;;;;;;;-15.28;94.03;99145.44;4996255;28;20446;-58
2024/01/12 03:00:27;;;;;;;43.63;13.45;;;;;;;-15.33;94.19;99145.91;5025300;28;20052;-59
2024/01/12 03:02:57;;;;;;;35.85;13.55;;;;;;;-15.41;94.20;99157.91;5015608;28;20057;-60
2024/01/12 03:05:28;;;;;;;26.60;10.20;;;;;;;-15.65;94.06;99107.03;5006102;28;20041;-58
2024/01/12 03:08:00;;;;;;;17.20;8.85;;;;;;;-15.42;94.32;99156.19;4996495;28;20667;-60
2024/01/12 03:10:30;;;;;;;22.95;10.55;;;;;;;-15.59;93.45;99141.66;5005966;28;20052;-60
2024/01/12 03:13:01;;;;;;;36.17;11.70;;;;;;;-15.62;93.58;99146.44;5010355;28;20164;-59
2024/01/12 03:15:31;;;;;;;35.78;10.65;;;;;;;-15.60;93.46;99162.44;5027279;28;20051;-60
2024/01/12 03:18:02;;;;;;;24.42;9.25;;;;;;;-15.66;93.68;99156.25;5034922;28;20129;-60
2024/01/12 03:20:33;;;;;;;28.98;8.88;;;;;;;-15.58;93.42;99173.44;5045100;28;20106;-60
2024/01/12 03:23:05;;;;;;;34.25;12.77;;;;;;;-15.63;93.54;99147.22;5034668;28;20058;-60
2024/01/12 03:25:36;;;;;;;22.10;8.88;;;;;;;-15.54;93.56;99182.91;5044566;28;20056;-60
2024/01/12 03:28:08;;;;;;;37.25;13.02;;;;;;;-15.67;92.70;99194.56;5033771;28;20048;-59
2024/01/12 03:30:39;;;;;;;28.60;10.02;;;;;;;-15.67;93.16;99187.06;5034563;28;20632;-60
2024/01/12 03:33:10;;;;;;;20.17;10.13;;;;;;;-15.65;93.47;99205.56;5044127;28;20048;-60
2024/01/12 03:35:41;;;;;;;37.28;12.85;;;;;;;-15.69;93.08;99166.06;5034582;28;20048;-60
2024/01/12 03:38:15;;;;;;;20.55;9.20;;;;;;;-15.70;93.25;99183.50;5044472;28;20487;-60
2024/01/12 03:40:45;;;;;;;26.10;9.48;;;;;;;-15.72;93.05;99170.91;5034381;28;20060;-60
2024/01/12 03:43:16;;;;;;;20.85;9.43;;;;;;;-15.75;92.77;99175.66;5034285;28;20052;-58
2024/01/12 03:45:46;;;;;;;21.83;8.60;;;;;;;-15.78;92.60;99185.47;5008435;28;20057;-60
2024/01/12 03:48:17;;;;;;;16.65;8.13;;;;;;;-15.77;92.93;99187.22;5006652;28;20053;-58
2024/01/12 03:50:48;;;;;;;16.23;6.57;;;;;;;-15.76;92.87;99183.94;4995037;28;20049;-59
2024/01/12 03:53:20;;;;;;;27.60;9.98;;;;;;;-15.81;92.55;99195.28;5004639;28;20809;-60
2024/01/12 03:55:51;;;;;;;18.38;8.35;;;;;;;-15.81;92.77;99210.31;4994610;28;20490;-58
2024/01/12 03:58:21;;;;;;;55.35;11.02;;;;;;;-15.86;92.40;99204.09;5019292;28;20053;-61
2024/01/12 04:00:51;;;;;;;29.38;9.27;;;;;;;-15.86;92.52;99186.59;5000956;28;20124;-58
2024/01/12 04:03:22;;;;;;;19.00;7.63;;;;;;;-15.87;92.91;99200.75;5021140;28;20053;-61
2024/01/12 04:05:52;;;;;;;60.47;11.93;;;;;;;-16.02;92.25;99193.75;5009644;28;20087;-60
2024/01/12 04:08:24;;;;;;;31.13;9.57;;;;;;;-16.07;92.69;99208.47;5027225;28;20105;-61
2024/01/12 04:10:56;;;;;;;18.20;7.28;;;;;;;-16.03;93.34;99197.91;5013209;28;20086;-61
2024/01/12 04:13:26;;;;;;;21.40;7.10;;;;;;;-16.01;93.55;99211.41;5030014;28;20721;-59
2024/01/12 04:15:57;;;;;;;20.92;8.68;;;;;;;-15.99;93.18;99199.00;5024094;28;21104;-59
2024/01/12 04:18:27;;;;;;;18.73;7.75;;;;;;;-16.07;92.93;99190.97;5033057;28;20115;-58
2024/01/12 04:20:58;;;;;;;25.42;10.10;;;;;;;-16.09;93.14;99188.34;5022569;28;20057;-60
2024/01/12 04:23:30;;;;;;;19.60;8.60;;;;;;;-16.02;93.49;99211.28;5033414;28;20044;-60
2024/01/12 04:26:00;;;;;;;13.90;8.43;;;;;;;-16.10;92.93;99206.63;5020679;28;20436;-60
2024/01/12 04:28:31;;;;;;;31.35;8.27;;;;;;;-16.05;93.29;99218.56;5022786;28;20476;-59
2024/01/12 04:31:03;;;;;;;22.00;9.60;;;;;;;-16.15;93.12;99207.03;5013472;28;20087;-58
2024/01/12 04:33:35;;;;;;;39.25;9.73;;;;;;;-16.19;93.19;99225.97;5018239;28;20056;-59
2024/01/12 04:36:08;;;;;;;30.88;10.10;;;;;;;-16.28;93.38;99205.31;5021182;28;20778;-59
2024/01/12 04:38:40;;;;;;;64.95;12.70;;;;;;;-16.28;93.59;99234.44;5026062;28;20114;-58
2024/01/12 04:41:10;;;;;;;30.33;10.18;;;;;;;-16.26;93.98;99245.44;5027948;28;20049;-60
2024/01/12 04:43:40;;;;;;;16.88;7.78;;;;;;;-16.27;94.17;99242.06;5003972;28;20167;-59
2024/01/12 04:46:11;;;;;;;20.42;10.70;;;;;;;-16.32;94.13;99255.88;5009030;28;20053;-59
2024/01/12 04:48:41;;;;;;;20.25;10.13;;;;;;;-16.29;94.29;99243.59;5021023;28;20516;-61
2024/01/12 04:51:12;;;;;;;22.20;9.43;;;;;;;-16.22;94.75;99248.28;5031266;28;20104;-60
2024/01/12 04:53:44;;;;;;;21.92;9.45;;;;;;;-16.21;94.40;99262.50;5015223;28;20056;-60
2024/01/12 04:56:14;;;;;;;24.60;8.15;;;;;;;-16.21;94.04;99254.16;5026930;28;20065;-60
2024/01/12 04:58:45;;;;;;;18.77;7.35;;;;;;;-16.17;94.23;99274.50;5022828;28;20045;-58
2024/01/12 05:01:16;;;;;;;16.05;7.85;;;;;;;-16.21;93.88;99245.00;5028721;28;20484;-61
2024/01/12 05:03:46;;;;;;;18.98;8.38;;;;;;;-16.16;93.87;99231.19;5019874;28;20752;-60
2024/01/12 05:06:16;;;;;;;28.92;10.90;;;;;;;-16.22;93.68;99273.28;5036218;28;20234;-58
2024/01/12 05:08:49;;;;;;;25.98;9.70;;;;;;;-16.19;94.22;99251.00;5026924;28;20049;-60
2024/01/12 05:11:21;;;;;;;24.67;9.00;;;;;;;-16.13;94.05;99255.56;5026457;28;20064;-59
2024/01/12 05:13:52;;;;;;;10.95;6.18;;;;;;;-16.14;94.13;99262.19;4979394;28;20076;-60
2024/01/12 05:16:22;;;;;;;11.18;6.65;;;;;;;-16.08;94.58;99256.75;4988284;28;20054;-59
2024/01/12 05:18:53;;;;;;;18.92;7.32;;;;;;;-16.00;95.12;99275.69;4978386;28;20497;-61
2024/01/12 05:21:23;;;;;;;26.70;7.60;;;;;;;-16.01;94.44;99280.59;4988037;28;20062;-60
2024/01/12 05:23:55;;;;;;;15.88;6.90;;;;;;;-16.00;94.58;99279.81;4978655;28;20054;-60
2024/01/12 05:26:26;;;;;;;19.33;7.50;;;;;;;-16.00;93.94;99272.31;4988029;28;20052;-58
2024/01/12 05:28:56;;;;;;;19.42;8.15;;;;;;;-16.05;94.11;99276.13;4990616;28;20060;-60
2024/01/12 05:31:27;;;;;;;18.77;7.78;;;;;;;-16.12;93.69;99293.22;5011292;28;20981;-59
2024/01/12 05:33:57;;;;;;;18.38;8.45;;;;;;;-16.18;94.13;99265.22;5016409;28;20121;-59
2024/01/12 05:36:28;;;;;;;18.98;8.05;;;;;;;-16.16;94.65;99278.72;5027396;28;20102;-58
2024/01/12 05:39:00;;;;;;;16.00;8.02;;;;;;;-16.17;94.72;99254.47;5009029;28;20057;-59
2024/01/12 05:41:31;;;;;;;22.65;8.40;;;;;;;-16.12;95.13;99295.72;5027296;28;20396;-60
2024/01/12 05:44:02;;;;;;;10.95;6.20;;;;;;;-16.12;95.07;99273.19;5012343;28;20045;-59
2024/01/12 05:46:32;;;;;;;24.00;9.80;;;;;;;-16.15;94.88;99290.47;5011539;28;20057;-60
2024/01/12 05:49:04;;;;;;;16.38;7.82;;;;;;;-16.15;94.85;99287.97;4996914;28;20053;-58
2024/01/12 05:51:35;;;;;;;14.63;7.35;;;;;;;-16.14;94.86;99274.72;5019867;28;20467;-59
2024/01/12 05:54:07;;;;;;;20.60;8.57;;;;;;;-16.13;95.07;99276.44;5016368;28;20059;-59
2024/01/12 05:56:38;;;;;;;19.02;8.00;;;;;;;-16.09;94.99;99293.44;5017953;28;20562;-60
2024/01/12 05:59:08;;;;;;;15.60;7.45;;;;;;;-16.08;95.31;99307.66;5024303;28;20087;-59
2024/01/12 06:01:38;;;;;;;18.48;8.32;;;;;;;-16.06;95.39;99301.91;5013108;28;20074;-61
2024/01/12 06:04:09;;;;;;;15.02;7.53;;;;;;;-16.05;95.20;99301.16;5032974;28;20371;-58
2024/01/12 06:06:42;;;;;;;12.70;7.18;;;;;;;-16.08;95.20;99302.66;5026967;28;20469;-63
2024/01/12 06:09:15;;;;;;;9.27;6.80;;;;;;;-16.29;95.44;99278.59;5021040;28;20044;-62
2024/01/12 06:11:45;;;;;;;21.70;7.85;;;;;;;-16.12;95.50;99298.22;5011398;28;20048;-61
2024/01/12 06:14:17;;;;;;;23.90;7.68;;;;;;;-16.13;95.46;99310.59;5022310;28;20728;-63
2024/01/12 06:16:48;;;;;;;17.02;7.43;;;;;;;-16.17;95.44;99294.50;5011425;28;20490;-62
2024/01/12 06:19:18;;;;;;;16.05;7.75;;;;;;;-16.17;95.67;99304.53;5022493;28;20186;-64
2024/01/12 06:21:49;;;;;;;21.02;7.60;;;;;;;-16.16;95.96;99296.25;5011030;28;20057;-61
2024/01/12 06:24:21;;;;;;;20.10;9.68;;;;;;;-16.16;96.23;99288.72;5021896;28;20060;-62
2024/01/12 06:26:51;;;;;;;21.48;7.15;;;;;;;-16.18;95.93;99315.25;5012005;28;20084;-64
2024/01/12 06:29:22;;;;;;;15.00;7.60;;;;;;;-16.18;96.25;99317.75;5028478;28;20071;-64
2024/01/12 06:31:52;;;;;;;20.05;8.30;;;;;;;-16.15;96.40;99317.13;5019336;28;20048;-62
2024/01/12 06:34:23;;;;;;;13.45;7.68;;;;;;;-16.11;96.82;99319.97;5031692;28;20150;-63
2024/01/12 06:36:53;;;;;;;19.98;8.30;;;;;;;-16.10;96.85;99311.72;5020640;28;20681;-62
2024/01/12 06:39:26;;;;;;;20.98;8.63;;;;;;;-16.08;96.87;99329.31;5030899;28;20048;-62
2024/01/12 06:41:58;;;;;;;15.10;6.82;;;;;;;-16.04;97.25;99335.44;5021464;28;20060;-64
2024/01/12 06:44:29;;;;;;;17.88;8.02;;;;;;;-16.02;97.45;99328.88;5031082;28;20156;-62
2024/01/12 06:46:59;;;;;;;17.95;7.18;;;;;;;-16.05;97.10;99313.66;5019853;28;20081;-62
2024/01/12 06:49:29;;;;;;;12.18;6.93;;;;;;;-16.01;97.33;99343.16;5025504;28;20113;-60
2024/01/12 06:52:00;;;;;;;18.88;8.70;;;;;;;-15.97;97.15;99332.59;5019309;28;20048;-61
2024/01/12 06:54:32;;;;;;;27.08;8.52;;;;;;;-15.94;97.55;99328.69;5030180;28;20134;-63
2024/01/12 06:57:02;;;;;;;16.58;8.55;;;;;;;-15.91;97.73;99343.94;5010898;28;20048;-62
2024/01/12 06:59:33;;;;;;;19.63;8.70;;;;;;;-15.89;97.66;99326.53;5026159;28;20050;-63
2024/01/12 07:02:04;;;;;;;19.33;8.63;;;;;;;-15.86;97.68;99336.75;5015583;28;20049;-59
2024/01/12 07:04:35;;;;;;;14.80;7.50;;;;;;;-15.83;97.96;99336.97;5029910;28;20057;-61
2024/01/12 07:07:06;;;;;;;16.52;7.00;;;;;;;-15.77;98.15;99334.94;5006401;28;20048;-62
2024/01/12 07:09:38;;;;;;;12.77;7.00;;;;;;;-15.75;98.11;99355.03;5029918;28;20163;-61
2024/01/12 07:12:09;;;;;;;16.35;7.63;;;;;;;-15.71;98.43;99337.84;5020811;28;20063;-61
2024/01/12 07:14:40;;;;;;;14.57;6.45;;;;;;;-15.68;98.72;99322.16;5020141;28;20075;-60
2024/01/12 07:17:10;;;;;;;19.05;7.25;;;;;;;-15.63;98.77;99350.88;5031259;28;20057;-60
2024/01/12 07:19:44;;;;;;;12.10;7.13;;;;;;;-15.60;98.66;99335.22;5019182;28;20045;-59
2024/01/12 07:22:14;;;;;;;11.88;6.63;;;;;;;-15.57;98.96;99345.44;5029149;28;20056;-60
2024/01/12 07:24:47;;;;;;;12.80;6.43;;;;;;;-15.56;98.83;99318.00;5002501;28;20064;-61
2024/01/12 07:27:18;;;;;;;14.75;6.07;;;;;;;-15.50;99.15;99352.63;5029116;28;20052;-60
2024/01/12 07:29:48;;;;;;;17.17;6.78;;;;;;;-15.50;99.03;99345.13;5019762;28;20087;-60
2024/01/12 07:32:19;;;;;;;10.48;6.65;;;;;;;-15.47;98.96;99302.78;5029371;28;20048;-61
2024/01/12 07:34:50;;;;;;;13.40;6.78;;;;;;;-15.46;99.43;99319.53;5018196;28;20052;-60
2024/01/12 07:37:21;;;;;;;11.00;7.32;;;;;;;-15.41;99.53;99322.38;5029298;28;20052;-59
2024/01/12 07:39:53;;;;;;;14.80;6.43;;;;;;;-15.39;99.35;99341.75;5018291;28;20055;-61
2024/01/12 07:42:24;;;;;;;11.63;6.03;;;;;;;-15.32;99.85;99343.94;5029280;28;20052;-62
2024/01/12 07:44:54;;;;;;;12.50;6.78;;;;;;;-15.34;99.77;99345.44;5018379;28;21267;-61
2024/01/12 07:47:25;;;;;;;17.20;7.50;;;;;;;-15.27;99.94;99342.63;5029488;28;20409;-61
2024/01/12 07:49:56;;;;;;;19.77;7.63;;;;;;;-15.24;100.00;99312.75;5016587;28;20053;-60
2024/01/12 07:52:27;;;;;;;14.32;6.15;;;;;;;-15.22;100.00;99336.28;5028925;28;20057;-59
2024/01/12 07:54:59;;;;;;;11.23;7.15;;;;;;;-15.18;99.89;99331.47;5018830;28;21017;-59
2024/01/12 07:57:30;;;;;;;13.30;7.88;;;;;;;-15.16;100.00;99339.97;5029193;28;20053;-61
2024/01/12 08:00:00;;;;;;;19.30;7.10;;;;;;;-15.08;100.00;99313.81;5018183;28;20052;-62
2024/01/12 08:02:31;;;;;;;15.32;7.88;;;;;;;-15.06;100.00;99318.16;5029389;28;20315;-60
2024/01/12 08:05:02;;;;;;;11.68;6.68;;;;;;;-15.05;100.00;99319.03;5017348;28;20048;-60
2024/01/12 08:07:32;;;;;;;19.67;6.90;;;;;;;-14.98;100.00;99321.19;5029749;28;20128;-61
2024/01/12 08:10:05;;;;;;;10.40;6.13;;;;;;;-14.94;100.00;99338.19;5012901;28;20065;-60
2024/01/12 08:12:35;;;;;;;11.77;6.15;;;;;;;-14.90;100.00;99320.09;5019292;28;20091;-61
2024/01/12 08:15:08;;;;;;;23.75;8.15;;;;;;;-14.86;100.00;99322.03;5005743;28;20503;-61
2024/01/12 08:17:39;;;;;;;11.38;6.47;;;;;;;-14.80;100.00;99312.44;5013085;28;20142;-59
2024/01/12 08:20:10;;;;;;;13.40;6.72;;;;;;;-14.76;100.00;99348.59;5019237;28;20079;-61
2024/01/12 08:22:41;;;;;;;12.90;6.10;;;;;;;-14.72;100.00;99329.59;5009562;28;20057;-61
2024/01/12 08:25:13;;;;;;;15.38;8.07;;;;;;;-14.70;100.00;99323.97;5019590;28;20156;-58
2024/01/12 08:27:43;;;;;;;13.70;5.45;;;;;;;-14.65;100.00;99331.78;5012942;28;20057;-57
2024/01/12 08:30:14;;;;;;;19.73;7.15;;;;;;;-14.62;100.00;99337.88;5049144;28;20052;-59
2024/01/12 08:32:44;;;;;;;8.90;5.60;;;;;;;-14.58;100.00;99333.94;5038876;28;20056;-59
2024/01/12 08:35:15;;;;;;;10.15;6.18;;;;;;;-14.53;100.00;99342.63;5048200;28;20072;-58
2024/01/12 08:37:46;;;;;;;12.98;5.78;;;;;;;-14.48;100.00;99356.31;5038740;28;20045;-60
2024/01/12 08:40:18;;;;;;;11.93;6.80;;;;;;;-14.44;100.00;99358.28;5045299;28;20052;-60
2024/01/12 08:42:48;;;;;;;21.67;9.18;;;;;;;-14.38;100.00;99333.59;5038098;28;20076;-60
2024/01/12 08:45:19;;;;;;;12.05;5.70;;;;;;;-14.30;100.00;99340.75;5048040;28;20059;-57
2024/01/12 08:47:49;;;;;;;23.73;8.15;;;;;;;-14.24;100.00;99351.22;5038587;28;20050;-60
2024/01/12 08:50:20;;;;;;;18.60;6.97;;;;;;;-14.35;100.00;99333.81;5047871;28;20094;-60
2024/01/12 08:52:49;;;;;;;18.05;6.13;;;;;;;-14.17;100.00;99353.38;5036795;28;20043;-57
2024/01/12 08:55:21;;;;;;;15.32;6.65;;;;;;;-14.14;100.00;99373.66;5047038;28;20062;-60
2024/01/12 08:57:53;;;;;;;17.92;8.30;;;;;;;-14.32;100.00;99322.22;5036953;28;20076;-57
2024/01/12 09:00:23;;;;;;;14.68;6.25;;;;;;;-14.01;100.00;99367.78;5047002;28;20057;-57
2024/01/12 09:02:53;;;;;;;12.48;5.82;;;;;;;-13.96;100.00;99364.78;5037296;28;20152;-58
2024/01/12 09:05:24;;;;;;;16.25;6.03;;;;;;;-13.92;100.00;99359.22;5046631;28;20079;-59
2024/01/12 09:07:55;;;;;;;29.38;8.15;;;;;;;-13.95;100.00;99366.56;5034995;28;20140;-60
2024/01/12 09:10:27;;;;;;;11.75;6.10;;;;;;;-13.84;100.00;99361.38;5048377;28;20139;-59
2024/01/12 09:12:57;;;;;;;15.00;6.50;;;;;;;-13.78;100.00;99361.75;5037432;28;20053;-60
2024/01/12 09:15:28;;;;;;;14.98;7.43;;;;;;;-13.73;100.00;99352.88;5047359;28;20139;-59
2024/01/12 09:17:58;;;;;;;11.95;6.03;;;;;;;-13.68;100.00;99366.59;5036779;28;20960;-60
2024/01/12 09:20:29;;;;;;;13.23;6.93;;;;;;;-13.63;100.00;99370.25;5046184;28;20051;-61
2024/01/12 09:23:00;;;;;;;21.90;8.48;;;;;;;-13.58;100.00;99352.97;5036306;28;20125;-60
2024/01/12 09:25:33;;;;;;;20.35;8.25;;;;;;;-13.55;100.00;99369.13;5046247;28;20049;-61
2024/01/12 09:28:04;;;;;;;19.80;8.05;;;;;;;-13.51;100.00;99361.00;5029647;28;20209;-61
2024/01/12 09:30:34;;;;;;;22.58;9.13;;;;;;;-13.54;100.00;99370.88;5057528;28;20052;-62
2024/01/12 09:33:05;;;;;;;11.75;6.35;;;;;;;-13.40;100.00;99383.44;5024923;28;20052;-60
2024/01/12 09:35:36;;;;;;;14.27;6.93;;;;;;;-13.36;100.00;99373.69;5038186;28;20139;-59
2024/01/12 09:38:07;;;;;;;42.10;10.55;;;;;;;-13.34;100.00;99353.69;5028104;28;20049;-61
2024/01/12 09:40:39;;;;;;;13.13;6.57;;;;;;;-13.29;100.00;99377.47;5036056;28;20451;-62
2024/01/12 09:43:15;;;;;;;12.88;6.53;;;;;;;-13.28;100.00;99374.16;5038606;28;20084;-61
2024/01/12 09:45:47;;;;;;;15.48;6.60;;;;;;;-13.21;100.00;99376.25;5028871;28;20722;-62
2024/01/12 09:48:17;;;;;;;18.40;7.35;;;;;;;-13.15;100.00;99371.63;5040522;28;20064;-61
2024/01/12 09:50:52;;;;;;;15.57;8.65;;;;;;;-13.12;100.00;99375.97;5030073;28;20076;-62
2024/01/12 09:53:22;;;;;;;30.90;7.57;;;;;;;-13.08;100.00;99363.69;5042833;28;20063;-62
2024/01/12 09:55:56;;;;;;;19.08;6.45;;;;;;;-13.02;100.00;99382.44;5032642;28;20048;-61
2024/01/12 09:58:39;;;;;;;23.15;7.43;;;;;;;-12.98;100.00;99365.09;5042283;28;20816;-61
2024/01/12 10:01:15;;;;;;;20.52;6.22;;;;;;;-12.95;100.00;99382.03;5032557;28;20750;-59
2024/01/12 10:03:48;;;;;;;14.48;6.80;;;;;;;-12.91;100.00;99389.00;5030297;28;20131;-59
2024/01/12 10:06:18;;;;;;;9.27;5.53;;;;;;;-12.87;100.00;99393.47;5042379;28;20052;-59
2024/01/12 10:08:49;;;;;;;14.60;6.88;;;;;;;-12.85;100.00;99382.72;5030856;28;20959;-60
2024/01/12 10:11:22;;;;;;;19.30;7.38;;;;;;;-12.82;100.00;99357.75;5042560;28;20063;-61
2024/01/12 10:13:52;;;;;;;22.27;6.35;;;;;;;-12.79;100.00;99382.22;5032174;28;20052;-60
2024/01/12 10:16:28;;;;;;;16.17;6.25;;;;;;;-12.73;100.00;99377.53;5042384;28;20142;-60
2024/01/12 10:18:59;;;;;;;15.68;7.18;;;;;;;-12.72;100.00;99386.84;5032441;28;20269;-61
2024/01/12 10:21:30;;;;;;;22.25;7.60;;;;;;;-12.68;100.00;99391.31;5041988;28;20079;-59
2024/01/12 10:24:06;;;;;;;19.90;5.57;;;;;;;-12.94;100.00;99343.56;5031888;28;20060;-61
2024/01/12 10:26:39;;;;;;;15.93;7.20;;;;;;;-12.60;100.00;99415.28;5042168;28;20050;-62
2024/01/12 10:29:09;;;;;;;26.45;7.93;;;;;;;-12.57;100.00;99428.84;5031789;28;20167;-60
2024/01/12 10:31:43;;;;;;;18.35;7.38;;;;;;;-12.55;100.00;99438.22;5031362;28;20058;-61
2024/01/12 10:34:15;;;;;;;22.95;7.28;;;;;;;-12.53;100.00;99405.56;5041380;28;20138;-61
2024/01/12 10:36:51;;;;;;;29.67;8.65;;;;;;;-12.48;100.00;99434.41;5031781;28;20088;-58
2024/01/12 10:39:23;;;;;;;13.70;5.60;;;;;;;-12.47;100.00;99451.25;5041827;28;20108;-59
2024/01/12 10:42:00;;;;;;;23.52;7.05;;;;;;;-12.46;100.00;99443.78;5032423;28;20123;-59
2024/01/12 10:44:34;;;;;;;11.90;6.18;;;;;;;-12.44;100.00;99441.38;5041333;28;20060;-59
2024/01/12 10:47:12;;;;;;;16.80;6.65;;;;;;;-12.47;100.00;99456.31;5030585;28;20047;-59
2024/01/12 10:49:50;;;;;;;18.83;7.13;;;;;;;-12.39;100.00;99432.47;5032702;28;20037;-59
2024/01/12 10:52:33;;;;;;;16.20;7.03;;;;;;;-12.36;100.00;99459.47;5042974;28;20056;-60
2024/01/12 10:55:06;;;;;;;21.35;8.50;;;;;;;-12.35;100.00;99436.91;5031471;28;20044;-60
2024/01/12 10:57:41;;;;;;;25.17;7.25;;;;;;;-12.34;100.00;99453.75;5040756;28;20633;-59
2024/01/12 11:00:14;;;;;;;20.98;6.93;;;;;;;-12.32;100.00;99452.19;5041117;28;20051;-60
2024/01/12 11:02:47;;;;;;;23.02;7.53;;;;;;;-12.31;100.00;99443.84;5031477;28;20053;-60
2024/01/12 11:05:20;;;;;;;14.18;7.03;;;;;;;-12.27;100.00;99465.94;5042652;28;20053;-60
2024/01/12 11:07:52;;;;;;;20.20;7.60;;;;;;;-12.25;100.00;99469.41;5031360;28;20056;-59
2024/01/12 11:10:23;;;;;;;20.65;7.97;;;;;;;-12.23;100.00;99467.88;5041127;28;20056;-61
2024/01/12 11:12:56;;;;;;;20.70;7.68;;;;;;;-12.20;100.00;99457.97;5031257;28;20056;-60
2024/01/12 11:15:30;;;;;;;18.50;7.25;;;;;;;-12.17;100.00;99478.28;5041408;28;20186;-60
2024/01/12 11:18:00;;;;;;;19.67;7.57;;;;;;;-12.46;100.00;99422.78;5032046;28;20163;-59
2024/01/12 11:20:31;;;;;;;22.13;8.45;;;;;;;-12.11;100.00;99471.88;5041957;28;20047;-60
2024/01/12 11:23:02;;;;;;;16.23;7.78;;;;;;;-12.10;100.00;99476.13;5047056;28;20862;-60
2024/01/12 11:25:32;;;;;;;22.80;7.15;;;;;;;-12.08;100.00;99478.00;5056745;28;20127;-59
2024/01/12 11:28:05;;;;;;;23.08;7.22;;;;;;;-12.06;100.00;99476.41;5047651;28;20060;-61
2024/01/12 11:30:42;;;;;;;17.95;6.38;;;;;;;-12.04;100.00;99489.13;5058327;28;20126;-59